New Hartford, CT

1:53 PM EDT on May 04, 2015 (GMT -0400)
West Hill Area | | Change Station
CLOSE
Current Station
Personal Weather Station
Location: New Hartford, CT
Elevation: 1060 ft
Nearby Weather Stations
Active Advisory: Special Statement

Elev 1060 ft 41.87 °N, 73.01 °W | Updated 8 seconds ago

Partly Cloudy
Partly Cloudy
83.8 °F
Feels Like 81 °F
N
5.9
Wind Variable Wind from WNW
Gusts 8.0 mph

Today
High -- | Low -- °F
--% Chance of Precip.
Yesterday
High -- | Low -- °F
Precip. -- in
5:44 AM 7:53 PM
Full, 100% visible
Pressure 30.12 in
Visibility 10.0 miles
Clouds Scattered Clouds 10000 ft
Mostly Cloudy 25000 ft
Heat Index 81 °F
Dew Point 43 °F
Humidity 24%
Rainfall 0.00 in
Snow Depth Not available.
UV 6 out of 12
Pollen 11.30 out of 12
Air Quality Not available.
Flu Activity Widespread
METAR KBDL 041651Z 20008G19KT 10SM SCT100 BKN250 29/06 A3012 RMK AO2 SLP198 T02890061

More Conditions Fewer Conditions

Pressure 30.12 in
Visibility 10.0 miles
Clouds Scattered Clouds 10000 ft
Mostly Cloudy 25000 ft
Heat Index 81 °F
Dew Point 43 °F
Humidity 24%
Rainfall 0.00 in
Snow Depth Not available.
UV 6 out of 12
Pollen 11.30 out of 12
Air Quality Not available.
Flu Activity Widespread
METAR KBDL 041651Z 20008G19KT 10SM SCT100 BKN250 29/06 A3012 RMK AO2 SLP198 T02890061

More Conditions Fewer Conditions

Nepal has a long way to go to dig out and rebuild from a devastating earthquake. We have teamed up with several charities and organizations to make contributing to the relief effort as easy as possible.
How you can help: Portlight Strategies | Red Cross

10-Day Weather Forecast

Almanac

Astronomy

May. 04, 2015 Rise Set
Actual Time
Civil Twilight
Nautical Twilight
Astronomical Twilight
Moon
Length of Visible Light
Length of Day
Tomorrow will be .
, % of the Moon is Illuminated

Today's Extremes

State Highs State Lows

Community

WunderPhotos

Upload Photos

1,818,659 photos uploaded!

WunderBlogs® & News

Nearby

Air Quality

  Air Quality AQ Index Pollutant
Not available.

Snow Depth

Station Depth Elevation

Earthquake Activity

City Distance Mag. Time & Date
Minimum magnitude displayed is 2.5.

Coastal Water Temperatures

Place Temperature

Stations

Nearby Weather Stations

Station Location Temp. Windchill Dew Point Humidity Wind Precip. Elev Updated Type
                   
Special Statement
Statement as of 3:49 AM EDT on May 04, 2015

... Localized fire weather concerns across southern Vermont and
northwestern Connecticut this afternoon into the early evening...

The combination of gusty winds... low relative humidity values and
dry fuels will result in an enhanced risk for the growth and
spread of any fires across southern Vermont and northwestern
Connecticut this afternoon into the early evening hours.

South to southwest winds will gust up to around 20 mph as relative
humidity values drop into the mid 20s to lower 30s. Conditions
will improve after sunset as winds weaken and relative humidities
rise.